createdAt,value
2023-09-06T00:00:50.093Z,101318.97
2023-09-06T00:02:52.758Z,101315.41
2023-09-06T00:04:56.114Z,101311.97
2023-09-06T00:06:57.907Z,101313.00
2023-09-06T00:08:59.422Z,101315.81
2023-09-06T00:11:05.398Z,101315.81
2023-09-06T00:13:08.085Z,101309.59
2023-09-06T00:15:10.434Z,101315.13
2023-09-06T00:17:11.958Z,101310.72
2023-09-06T00:19:14.528Z,101308.84
2023-09-06T00:21:15.998Z,101311.69
2023-09-06T00:23:18.604Z,101308.16
2023-09-06T00:25:20.147Z,101306.56
2023-09-06T00:27:21.680Z,101310.97
2023-09-06T00:29:23.216Z,101312.84
2023-09-06T00:31:24.890Z,101312.13
2023-09-06T00:33:27.673Z,101313.97
2023-09-06T00:35:29.325Z,101311.28
2023-09-06T00:37:41.176Z,101304.19
2023-09-06T00:39:42.686Z,101301.63
2023-09-06T00:41:46.254Z,101301.63
2023-09-06T00:43:47.812Z,101305.31
2023-09-06T00:45:51.863Z,101309.00
2023-09-06T00:47:57.165Z,101311.69
2023-09-06T00:49:59.201Z,101312.66
2023-09-06T00:52:00.762Z,101306.44
2023-09-06T00:54:02.243Z,101304.75
2023-09-06T00:56:04.347Z,101303.03
2023-09-06T00:58:07.349Z,101304.00
2023-09-06T01:00:24.287Z,101305.88
2023-09-06T01:02:26.495Z,101305.97
2023-09-06T01:04:28.203Z,101302.44
2023-09-06T01:06:31.020Z,101305.16
2023-09-06T01:08:37.489Z,101303.44
2023-09-06T01:10:38.949Z,101307.09
2023-09-06T01:12:40.756Z,101302.72
2023-09-06T01:14:42.390Z,101301.88
2023-09-06T01:16:47.025Z,101301.03
2023-09-06T01:18:49.058Z,101305.56
2023-09-06T01:20:57.531Z,101303.00
2023-09-06T01:23:07.694Z,101301.25
2023-09-06T01:25:10.237Z,101302.25
2023-09-06T01:27:13.429Z,101300.44
2023-09-06T01:29:14.917Z,101303.22
2023-09-06T01:31:17.231Z,101303.22
2023-09-06T01:33:18.859Z,101305.94
2023-09-06T01:35:20.395Z,101306.91
2023-09-06T01:37:24.876Z,101302.53
2023-09-06T01:39:27.280Z,101307.94
2023-09-06T01:41:28.787Z,101309.75
2023-09-06T01:43:32.515Z,101310.72
2023-09-06T01:45:36.561Z,101306.31
2023-09-06T01:47:38.142Z,101307.34
2023-09-06T01:49:39.671Z,101310.88
2023-09-06T01:51:41.131Z,101310.16
2023-09-06T01:53:43.180Z,101315.53
2023-09-06T01:55:45.028Z,101307.59
2023-09-06T01:57:46.522Z,101314.84
2023-09-06T01:59:51.839Z,101289.72
2023-09-06T02:01:56.078Z,101310.44
2023-09-06T02:03:57.796Z,101309.56
2023-09-06T02:05:59.347Z,101308.72
2023-09-06T02:08:01.090Z,101302.50
2023-09-06T02:10:04.144Z,101311.56
2023-09-06T02:12:06.754Z,101321.47
2023-09-06T02:14:08.230Z,101317.94
2023-09-06T02:16:10.059Z,101318.91
2023-09-06T02:18:16.228Z,101319.91
2023-09-06T02:20:21.379Z,101316.38
2023-09-06T02:22:23.238Z,101314.66
2023-09-06T02:24:24.814Z,101319.19
2023-09-06T02:26:26.369Z,101321.03
2023-09-06T02:28:28.341Z,101318.47
2023-09-06T02:30:30.191Z,101323.00
2023-09-06T02:32:33.205Z,101314.09
2023-09-06T02:34:35.331Z,101315.06
2023-09-06T02:36:36.766Z,101314.22
2023-09-06T02:38:38.243Z,101317.91
2023-09-06T02:40:41.983Z,101317.91
2023-09-06T02:42:45.341Z,101311.66
2023-09-06T02:44:47.498Z,101308.25
2023-09-06T02:46:53.511Z,101308.25
2023-09-06T02:48:58.956Z,101304.69
2023-09-06T02:51:00.961Z,101305.69
2023-09-06T02:53:04.422Z,101311.06
2023-09-06T02:55:11.846Z,101313.75
2023-09-06T02:57:15.206Z,101313.75
2023-09-06T02:59:17.037Z,101312.91
2023-09-06T03:05:42.672Z,101312.19
2023-09-06T03:07:45.789Z,101313.16
2023-09-06T03:09:47.391Z,101311.50
2023-09-06T03:11:49.353Z,101316.00
2023-09-06T03:13:56.409Z,101307.09
2023-09-06T03:16:00.795Z,101308.91
2023-09-06T03:18:03.563Z,101315.16
2023-09-06T03:20:19.795Z,101313.47
2023-09-06T03:22:24.330Z,101309.91
2023-09-06T03:24:25.884Z,101316.28
2023-09-06T03:26:27.331Z,101311.75
2023-09-06T03:28:29.698Z,101309.19
2023-09-06T03:30:31.628Z,101308.34
2023-09-06T03:32:33.227Z,101308.34
2023-09-06T03:34:35.645Z,101311.03
2023-09-06T03:36:37.108Z,101306.63
2023-09-06T03:38:38.651Z,101308.47
2023-09-06T03:40:43.395Z,101308.63
2023-09-06T03:42:45.115Z,101306.75
2023-09-06T03:44:47.660Z,101313.13
2023-09-06T03:46:50.280Z,101312.28
2023-09-06T03:48:52.143Z,101310.59
2023-09-06T03:51:04.048Z,101315.97
2023-09-06T03:53:06.037Z,101318.66
2023-09-06T03:55:11.020Z,101313.41
2023-09-06T03:57:15.176Z,101314.25
2023-09-06T03:59:17.833Z,101318.91
2023-09-06T04:01:20.407Z,101320.63
2023-09-06T04:03:24.100Z,101316.22
2023-09-06T04:05:27.013Z,101316.34
2023-09-06T04:07:28.648Z,101318.22
2023-09-06T04:09:38.188Z,101322.72
2023-09-06T04:11:40.427Z,101321.03
2023-09-06T04:13:43.826Z,101323.72
2023-09-06T04:15:45.340Z,101330.94
2023-09-06T04:17:46.903Z,101322.13
2023-09-06T04:19:48.459Z,101328.38
2023-09-06T04:21:50.000Z,101332.06
2023-09-06T04:23:51.421Z,101322.28
2023-09-06T04:25:52.980Z,101327.50
2023-09-06T04:27:56.293Z,101328.63
2023-09-06T04:29:58.152Z,101325.94
2023-09-06T04:31:59.745Z,101323.41
2023-09-06T04:34:02.933Z,101321.53
2023-09-06T04:36:05.347Z,101319.00
2023-09-06T04:38:10.749Z,101325.25
2023-09-06T04:40:13.068Z,101323.53
2023-09-06T04:42:14.687Z,101323.53
2023-09-06T04:44:16.182Z,101311.06
2023-09-06T04:46:17.773Z,101319.13
2023-09-06T04:48:19.458Z,101313.41
2023-09-06T04:50:21.006Z,101321.09
2023-09-06T04:52:23.725Z,101324.53
2023-09-06T04:54:25.165Z,101337.25
2023-09-06T04:56:26.885Z,101327.47
2023-09-06T04:58:28.744Z,101332.00
2023-09-06T05:00:36.740Z,101328.44
2023-09-06T05:02:38.735Z,101330.28
2023-09-06T05:04:40.312Z,101337.53
2023-09-06T05:06:42.029Z,101332.97
2023-09-06T05:08:43.508Z,101331.28
2023-09-06T05:10:45.024Z,101333.13
2023-09-06T05:12:47.134Z,101332.25
2023-09-06T05:14:49.094Z,101331.41
2023-09-06T05:16:50.642Z,101335.91
2023-09-06T05:18:52.134Z,101330.53
2023-09-06T05:20:53.738Z,101328.84
2023-09-06T05:22:56.531Z,101333.38
2023-09-06T05:24:58.130Z,101327.16
2023-09-06T05:26:59.640Z,101332.53
2023-09-06T05:29:01.232Z,101329.94
2023-09-06T05:31:03.156Z,101337.00
2023-09-06T05:33:04.922Z,101338.84
2023-09-06T05:35:06.693Z,101331.78
2023-09-06T05:37:10.061Z,101338.13
2023-09-06T05:39:13.742Z,101339.09
2023-09-06T05:41:15.462Z,101332.88
2023-09-06T05:43:17.146Z,101338.25
2023-09-06T05:45:19.486Z,101337.44
2023-09-06T05:47:21.058Z,101344.63
2023-09-06T05:49:22.708Z,101341.09
2023-09-06T05:51:24.237Z,101350.97
2023-09-06T05:53:27.318Z,101349.16
2023-09-06T05:55:29.384Z,101350.97
2023-09-06T05:57:31.954Z,101346.47
2023-09-06T05:59:33.500Z,101345.59
2023-09-06T06:01:35.194Z,101356.38
2023-09-06T06:03:39.121Z,101352.84
2023-09-06T06:05:43.525Z,101352.97
2023-09-06T06:07:45.499Z,101352.97
2023-09-06T06:09:47.077Z,101352.97
2023-09-06T06:11:48.897Z,101355.66
2023-09-06T06:14:00.353Z,101354.78
2023-09-06T06:16:10.026Z,101351.25
2023-09-06T06:18:13.214Z,101355.78
2023-09-06T06:20:14.808Z,101360.16
2023-09-06T06:22:16.380Z,101365.69
2023-09-06T06:24:18.331Z,101363.84
2023-09-06T06:26:21.260Z,101370.09
2023-09-06T06:28:22.873Z,101362.84
2023-09-06T06:30:24.595Z,101371.06
2023-09-06T06:32:26.290Z,101368.38
2023-09-06T06:34:27.865Z,101371.91
2023-09-06T06:36:31.235Z,101370.19
2023-09-06T06:38:33.353Z,101375.56
2023-09-06T06:40:36.130Z,101371.91
2023-09-06T06:42:40.314Z,101372.88
2023-09-06T06:44:48.605Z,101382.66
2023-09-06T06:46:50.318Z,101372.88
2023-09-06T06:48:51.928Z,101377.41
2023-09-06T06:50:53.872Z,101375.56
2023-09-06T06:52:55.312Z,101380.94
2023-09-06T06:54:56.785Z,101372.88
2023-09-06T06:56:58.384Z,101370.34
2023-09-06T06:59:00.142Z,101379.28
2023-09-06T07:01:01.722Z,101372.03
2023-09-06T07:03:04.250Z,101372.03
2023-09-06T07:05:05.951Z,101378.25
2023-09-06T07:07:07.458Z,101388.19
2023-09-06T07:09:09.142Z,101382.78
2023-09-06T07:11:13.863Z,101386.47
2023-09-06T07:13:16.547Z,101386.31
2023-09-06T07:15:18.550Z,101388.03
2023-09-06T07:17:20.281Z,101385.50
2023-09-06T07:19:21.940Z,101390.72
2023-09-06T07:21:23.712Z,101394.41
2023-09-06T07:23:25.205Z,101389.03
2023-09-06T07:25:28.999Z,101397.97
2023-09-06T07:27:30.577Z,101394.28
2023-09-06T07:29:32.130Z,101399.66
2023-09-06T07:31:33.717Z,101399.66
2023-09-06T07:33:35.610Z,101398.69
2023-09-06T07:35:37.127Z,101400.50
2023-09-06T07:37:38.707Z,101397.69
2023-09-06T07:39:40.599Z,101404.91
2023-09-06T07:41:42.716Z,101402.22
2023-09-06T07:43:44.481Z,101401.25
2023-09-06T07:45:46.003Z,101405.63
2023-09-06T07:47:47.624Z,101400.25
2023-09-06T07:49:49.259Z,101403.78
2023-09-06T07:51:51.424Z,101398.41
2023-09-06T07:53:52.888Z,101404.66
2023-09-06T07:55:54.900Z,101406.34
2023-09-06T07:57:56.505Z,101407.22
2023-09-06T07:59:58.055Z,101408.94
2023-09-06T08:01:59.625Z,101412.44
2023-09-06T08:04:01.297Z,101411.63
2023-09-06T08:06:05.338Z,101417.69
2023-09-06T08:08:07.883Z,101415.91
2023-09-06T08:10:10.752Z,101415.78
2023-09-06T08:12:12.281Z,101421.16
2023-09-06T08:14:14.179Z,101422.88
2023-09-06T08:16:16.033Z,101413.81
2023-09-06T08:18:17.709Z,101412.84
2023-09-06T08:20:19.835Z,101420.75
2023-09-06T08:22:26.743Z,101418.81
2023-09-06T08:24:37.248Z,101427.59
2023-09-06T08:26:38.798Z,101423.06
2023-09-06T08:28:40.579Z,101412.16
2023-09-06T08:30:45.444Z,101411.94
2023-09-06T08:32:47.904Z,101416.28
2023-09-06T08:34:50.342Z,101418.88
2023-09-06T08:36:52.721Z,101417.09
2023-09-06T08:38:54.245Z,101415.31
2023-09-06T08:40:55.749Z,101418.19
2023-09-06T08:43:03.183Z,101424.75
2023-09-06T08:45:05.872Z,101427.91
2023-09-06T08:47:09.596Z,101431.50
2023-09-06T08:49:12.457Z,101415.69
2023-09-06T08:51:15.150Z,101416.97
2023-09-06T08:53:19.237Z,101426.38
2023-09-06T08:55:20.947Z,101419.59
2023-09-06T08:57:22.722Z,101432.66
2023-09-06T08:59:25.694Z,101422.56
2023-09-06T09:01:27.628Z,101424.13
2023-09-06T09:03:29.633Z,101426.72
2023-09-06T09:05:31.578Z,101430.84
2023-09-06T09:07:33.302Z,101429.56
2023-09-06T09:09:34.840Z,101428.47
2023-09-06T09:11:43.598Z,101419.13
2023-09-06T09:13:46.220Z,101422.69
2023-09-06T09:15:47.731Z,101416.06
2023-09-06T09:17:59.905Z,101412.66
2023-09-06T09:20:04.348Z,101421.22
2023-09-06T09:22:09.340Z,101417.66
2023-09-06T09:24:11.040Z,101423.19
2023-09-06T09:26:12.660Z,101415.66
2023-09-06T09:28:15.181Z,101415.25
2023-09-06T09:30:17.224Z,101417.53
2023-09-06T09:32:19.627Z,101409.28
2023-09-06T09:34:21.461Z,101415.94
2023-09-06T09:36:23.268Z,101407.31
2023-09-06T09:38:24.842Z,101415.81
2023-09-06T09:42:51.723Z,101410.97
2023-09-06T09:45:02.920Z,101413.69
2023-09-06T09:47:25.004Z,101416.94
2023-09-06T09:49:34.157Z,101415.66
2023-09-06T09:51:36.895Z,101409.97
2023-09-06T09:53:39.353Z,101413.06
2023-09-06T09:55:42.420Z,101417.72
2023-09-06T09:57:45.826Z,101414.75
2023-09-06T09:59:51.139Z,101415.91
2023-09-06T10:01:53.270Z,101407.97
2023-09-06T10:03:56.709Z,101411.94
2023-09-06T10:05:59.457Z,101403.84
2023-09-06T10:08:01.638Z,101409.38
2023-09-06T10:10:06.315Z,101410.94
2023-09-06T10:12:12.812Z,101410.19
2023-09-06T10:14:15.778Z,101408.06
2023-09-06T10:16:17.424Z,101403.63
2023-09-06T10:18:19.222Z,101397.09
2023-09-06T10:20:24.339Z,101393.41
2023-09-06T10:22:25.871Z,101393.78
2023-09-06T10:24:31.748Z,101391.25
2023-09-06T10:26:38.154Z,101388.41
2023-09-06T10:28:39.649Z,101394.63
2023-09-06T10:30:46.187Z,101391.38
2023-09-06T10:32:48.523Z,101384.75
2023-09-06T10:35:08.517Z,101390.97
2023-09-06T10:37:10.075Z,101388.56
2023-09-06T10:39:15.497Z,101382.47
2023-09-06T10:41:18.989Z,101378.91
2023-09-06T10:43:21.642Z,101379.63
2023-09-06T10:45:23.141Z,101375.94
2023-09-06T10:47:25.335Z,101377.91
2023-09-06T10:49:30.210Z,101374.38
2023-09-06T10:51:33.659Z,101365.69
2023-09-06T10:55:49.071Z,101367.47
2023-09-06T10:57:58.241Z,101361.03
2023-09-06T10:59:59.801Z,101364.72
2023-09-06T11:02:28.584Z,101357.28
2023-09-06T11:04:31.464Z,101361.72
2023-09-06T11:06:49.365Z,101361.72
2023-09-06T11:08:51.196Z,101361.72
2023-09-06T11:13:13.723Z,101353.91
2023-09-06T11:15:17.764Z,101348.75
2023-09-06T11:17:22.953Z,101357.84
2023-09-06T11:19:28.618Z,101355.00
2023-09-06T11:21:32.764Z,101347.91
2023-09-06T11:23:44.145Z,101345.03
2023-09-06T11:25:46.498Z,101343.06
2023-09-06T11:27:48.896Z,101343.44
2023-09-06T11:30:01.142Z,101339.75
2023-09-06T11:32:09.743Z,101343.81
2023-09-06T11:34:14.325Z,101344.38
2023-09-06T11:36:16.444Z,101340.50
2023-09-06T11:38:21.574Z,101339.50
2023-09-06T11:40:25.886Z,101339.06
2023-09-06T11:42:32.257Z,101334.34
2023-09-06T11:44:34.818Z,101333.47
2023-09-06T11:46:39.768Z,101325.09
2023-09-06T11:48:43.065Z,101326.78
2023-09-06T11:50:45.359Z,101317.97
2023-09-06T11:52:57.143Z,101314.28
2023-09-06T11:55:06.356Z,101318.22
2023-09-06T11:57:11.869Z,101310.25
2023-09-06T11:59:15.557Z,101314.81
2023-09-06T12:01:21.290Z,101309.94
2023-09-06T12:03:30.102Z,101310.19
2023-09-06T12:05:42.652Z,101310.06
2023-09-06T12:07:50.432Z,101306.47
2023-09-06T12:09:52.225Z,101309.03
2023-09-06T12:11:53.875Z,101310.59
2023-09-06T12:13:55.596Z,101312.81
2023-09-06T12:15:57.563Z,101302.00
2023-09-06T12:18:00.460Z,101308.44
2023-09-06T12:20:02.466Z,101308.28
2023-09-06T12:22:06.405Z,101299.16
2023-09-06T12:24:08.040Z,101301.38
2023-09-06T12:26:11.401Z,101301.06
2023-09-06T12:28:13.532Z,101297.03
2023-09-06T12:30:17.425Z,101293.72
2023-09-06T12:32:18.891Z,101298.34
2023-09-06T12:34:20.358Z,101299.69
2023-09-06T12:36:21.896Z,101300.22
2023-09-06T12:38:23.373Z,101299.56
2023-09-06T12:40:28.924Z,101295.63
2023-09-06T12:42:30.508Z,101301.03
2023-09-06T12:44:32.175Z,101296.16
2023-09-06T12:46:33.736Z,101295.81
2023-09-06T12:48:36.132Z,101285.53
2023-09-06T12:50:37.889Z,101290.63
2023-09-06T12:52:39.478Z,101296.59
2023-09-06T12:54:41.001Z,101289.47
2023-09-06T12:56:42.887Z,101284.41
2023-09-06T12:58:44.792Z,101286.69
2023-09-06T13:00:47.180Z,101284.28
2023-09-06T13:02:48.834Z,101278.69
2023-09-06T13:04:50.624Z,101275.38
2023-09-06T13:06:52.454Z,101276.06
2023-09-06T13:08:54.189Z,101272.03
2023-09-06T13:10:55.703Z,101270.00
2023-09-06T13:12:57.285Z,101270.69
2023-09-06T13:14:59.031Z,101264.97
2023-09-06T13:17:00.795Z,101265.66
2023-09-06T13:23:16.086Z,101270.06
2023-09-06T13:25:17.672Z,101261.06
2023-09-06T13:27:19.484Z,101264.66
2023-09-06T13:29:21.066Z,101260.59
2023-09-06T13:31:22.771Z,101256.00
2023-09-06T13:35:30.797Z,101260.91
2023-09-06T13:37:33.388Z,101247.53
2023-09-06T13:39:35.029Z,101247.88
2023-09-06T13:41:37.156Z,101254.66
2023-09-06T13:45:45.786Z,101248.09
2023-09-06T13:47:47.644Z,101252.81
2023-09-06T13:49:50.554Z,101247.56
2023-09-06T13:51:52.217Z,101251.13
2023-09-06T13:53:53.878Z,101245.22
2023-09-06T13:55:55.436Z,101247.75
2023-09-06T13:57:57.242Z,101243.38
2023-09-06T13:59:58.757Z,101235.91
2023-09-06T14:02:00.544Z,101241.03
2023-09-06T14:04:04.348Z,101237.31
2023-09-06T14:06:06.812Z,101234.25
2023-09-06T14:08:08.413Z,101238.16
2023-09-06T14:12:16.521Z,101227.34
2023-09-06T14:14:18.376Z,101222.75
2023-09-06T14:16:20.122Z,101225.84
2023-09-06T14:24:36.471Z,101225.16
2023-09-06T14:26:38.614Z,101220.22
2023-09-06T14:28:40.201Z,101222.44
2023-09-06T14:30:41.940Z,101214.81
2023-09-06T14:32:43.494Z,101217.53
2023-09-06T14:34:45.130Z,101206.34
2023-09-06T14:36:46.773Z,101218.44
2023-09-06T14:38:48.306Z,101213.19
2023-09-06T14:40:49.841Z,101213.34
2023-09-06T14:42:51.344Z,101210.47
2023-09-06T14:44:53.168Z,101208.28
2023-09-06T14:46:54.787Z,101203.53
2023-09-06T14:48:56.399Z,101207.44
2023-09-06T14:50:59.078Z,101211.16
2023-09-06T14:53:00.755Z,101205.75
2023-09-06T14:55:02.295Z,101213.19
2023-09-06T14:57:03.824Z,101201.47
2023-09-06T14:59:05.330Z,101208.47
2023-09-06T15:01:09.225Z,101202.16
2023-09-06T15:03:11.440Z,101202.88
2023-09-06T15:05:14.399Z,101197.97
2023-09-06T15:07:15.958Z,101201.50
2023-09-06T15:09:17.696Z,101207.94
2023-09-06T15:11:19.367Z,101201.00
2023-09-06T15:13:20.849Z,101195.41
2023-09-06T15:15:22.435Z,101201.50
2023-09-06T15:17:24.127Z,101203.38
2023-09-06T15:19:25.696Z,101208.63
2023-09-06T15:21:27.644Z,101198.97
2023-09-06T15:23:29.325Z,101204.22
2023-09-06T15:25:30.855Z,101204.22
2023-09-06T15:27:32.598Z,101206.41
2023-09-06T15:29:34.111Z,101196.75
2023-09-06T15:31:35.647Z,101201.66
2023-09-06T15:33:38.084Z,101196.38
2023-09-06T15:35:39.654Z,101195.22
2023-09-06T15:37:59.418Z,101186.78
2023-09-06T15:40:01.160Z,101192.81
2023-09-06T15:42:04.474Z,101190.25
2023-09-06T15:44:06.498Z,101188.41
2023-09-06T15:46:08.320Z,101188.22
2023-09-06T15:48:09.957Z,101181.75
2023-09-06T15:50:13.840Z,101203.28
2023-09-06T15:52:15.394Z,101189.72
2023-09-06T15:54:16.967Z,101189.50
2023-09-06T15:56:20.394Z,101186.44
2023-09-06T15:58:21.886Z,101193.88
2023-09-06T16:02:28.199Z,101189.47
2023-09-06T16:04:30.047Z,101187.41
2023-09-06T16:06:32.101Z,101184.19
2023-09-06T16:08:33.993Z,101182.34
2023-09-06T16:10:35.877Z,101176.56
2023-09-06T16:12:38.599Z,101184.81
2023-09-06T16:14:40.265Z,101186.22
2023-09-06T16:16:42.147Z,101182.34
2023-09-06T16:18:48.057Z,101184.03
2023-09-06T16:20:49.648Z,101186.06
2023-09-06T16:22:51.228Z,101177.16
2023-09-06T16:24:52.810Z,101183.09
2023-09-06T16:26:56.023Z,101185.94
2023-09-06T16:28:57.833Z,101184.09
2023-09-06T16:30:59.382Z,101180.88
2023-09-06T16:33:01.431Z,101190.00
2023-09-06T16:35:08.911Z,101186.28
2023-09-06T16:37:10.905Z,101180.53
2023-09-06T16:39:12.401Z,101181.69
2023-09-06T16:41:15.646Z,101190.00
2023-09-06T16:43:17.257Z,101185.59
2023-09-06T16:45:19.749Z,101184.34
2023-09-06T16:47:21.468Z,101185.22
2023-09-06T16:49:22.934Z,101189.78
2023-09-06T16:51:24.892Z,101186.59
2023-09-06T16:53:26.924Z,101186.22
2023-09-06T16:55:28.519Z,101183.84
2023-09-06T16:57:30.346Z,101175.00
2023-09-06T16:59:32.394Z,101187.88
2023-09-06T17:01:34.244Z,101192.75
2023-09-06T17:03:35.977Z,101185.66
2023-09-06T17:05:37.665Z,101190.22
2023-09-06T17:07:39.342Z,101191.13
2023-09-06T17:09:40.871Z,101183.53
2023-09-06T17:11:44.693Z,101192.47
2023-09-06T17:13:46.317Z,101187.28
2023-09-06T17:15:48.075Z,101186.44
2023-09-06T17:17:50.936Z,101184.75
2023-09-06T17:19:52.541Z,101182.53
2023-09-06T17:21:54.954Z,101187.13
2023-09-06T17:24:03.390Z,101183.03
2023-09-06T17:26:08.323Z,101184.06
2023-09-06T17:28:10.403Z,101186.53
2023-09-06T17:30:20.296Z,101181.78
2023-09-06T17:32:23.435Z,101179.94
2023-09-06T17:34:25.029Z,101180.75
2023-09-06T17:36:26.630Z,101184.47
2023-09-06T17:38:28.495Z,101179.94
2023-09-06T17:40:30.303Z,101187.34
2023-09-06T17:42:32.478Z,101189.06
2023-09-06T17:44:36.532Z,101185.81
2023-09-06T17:46:38.179Z,101189.34
2023-09-06T17:48:39.842Z,101192.22
2023-09-06T17:50:48.558Z,101196.69
2023-09-06T17:52:50.382Z,101195.16
2023-09-06T17:54:52.100Z,101191.59
2023-09-06T17:56:54.882Z,101194.47
2023-09-06T17:58:57.750Z,101195.09
2023-09-06T18:01:00.260Z,101192.22
2023-09-06T18:03:02.157Z,101189.53
2023-09-06T18:05:04.119Z,101200.53
2023-09-06T18:07:05.894Z,101196.41
2023-09-06T18:09:08.883Z,101195.56
2023-09-06T18:11:13.144Z,101194.88
2023-09-06T18:13:15.347Z,101200.47
2023-09-06T18:15:18.270Z,101196.91
2023-09-06T18:17:19.886Z,101205.34
2023-09-06T18:19:26.479Z,101201.94
2023-09-06T18:21:28.988Z,101207.34
2023-09-06T18:23:33.657Z,101205.81
2023-09-06T18:25:36.331Z,101209.50
2023-09-06T18:27:38.638Z,101216.50
2023-09-06T18:29:40.220Z,101217.50
2023-09-06T18:31:41.732Z,101217.50
2023-09-06T18:33:43.261Z,101214.91
2023-09-06T18:35:46.492Z,101215.09
2023-09-06T18:37:50.200Z,101214.38
2023-09-06T18:39:51.787Z,101227.34
2023-09-06T18:41:53.301Z,101224.09
2023-09-06T18:43:56.002Z,101228.84
2023-09-06T18:45:57.728Z,101235.72
2023-09-06T18:48:00.624Z,101237.16
2023-09-06T18:50:08.244Z,101236.34
2023-09-06T18:52:09.860Z,101235.63
2023-09-06T18:54:11.550Z,101238.50
2023-09-06T18:56:13.275Z,101245.06
2023-09-06T18:58:16.567Z,101244.19
2023-09-06T19:00:22.993Z,101247.22
2023-09-06T19:02:24.852Z,101244.81
2023-09-06T19:04:26.485Z,101251.38
2023-09-06T19:06:30.794Z,101252.38
2023-09-06T19:08:34.314Z,101255.97
2023-09-06T19:10:36.359Z,101261.91
2023-09-06T19:12:38.886Z,101274.25
2023-09-06T19:14:40.362Z,101270.72
2023-09-06T19:16:41.983Z,101272.72
2023-09-06T19:18:43.763Z,101282.53
2023-09-06T19:20:45.333Z,101280.81
2023-09-06T19:22:47.954Z,101287.41
2023-09-06T19:24:50.052Z,101287.69
2023-09-06T19:26:51.586Z,101285.16
2023-09-06T19:28:53.178Z,101286.16
2023-09-06T19:30:58.658Z,101286.31
2023-09-06T19:33:00.699Z,101284.59
2023-09-06T19:35:02.650Z,101290.16
2023-09-06T19:37:04.645Z,101286.59
2023-09-06T19:39:06.784Z,101287.75
2023-09-06T19:41:10.775Z,101290.91
2023-09-06T19:43:12.305Z,101292.06
2023-09-06T19:45:13.747Z,101297.47
2023-09-06T19:47:18.350Z,101299.47
2023-09-06T19:49:20.072Z,101300.50
2023-09-06T19:51:21.518Z,101300.63
2023-09-06T19:53:23.322Z,101301.63
2023-09-06T19:55:24.848Z,101297.38
2023-09-06T19:57:26.476Z,101301.06
2023-09-06T19:59:28.065Z,101308.47
2023-09-06T20:01:31.171Z,101304.22
2023-09-06T20:03:32.893Z,101298.94
2023-09-06T20:05:35.062Z,101302.66
2023-09-06T20:07:36.776Z,101300.09
2023-09-06T20:09:39.742Z,101313.75
2023-09-06T20:11:41.313Z,101313.75
2023-09-06T20:13:43.569Z,101309.50
2023-09-06T20:15:45.166Z,101307.81
2023-09-06T20:17:46.810Z,101311.66
2023-09-06T20:19:48.562Z,101288.97
2023-09-06T20:21:50.202Z,101305.56
2023-09-06T20:23:52.250Z,101298.44
2023-09-06T20:25:54.616Z,101304.00
2023-09-06T20:27:56.136Z,101309.56
2023-09-06T20:29:57.946Z,101299.03
2023-09-06T20:32:01.005Z,101302.75
2023-09-06T20:34:02.731Z,101305.44
2023-09-06T20:36:04.781Z,101303.78
2023-09-06T20:38:06.329Z,101304.75
2023-09-06T20:40:08.625Z,101300.53
2023-09-06T20:42:10.208Z,101294.41
2023-09-06T20:44:11.899Z,101303.50
2023-09-06T20:46:16.367Z,101297.38
2023-09-06T20:48:18.591Z,101301.09
2023-09-06T20:50:20.673Z,101297.72
2023-09-06T20:52:22.187Z,101298.69
2023-09-06T20:54:24.000Z,101299.84
2023-09-06T20:56:25.759Z,101295.44
2023-09-06T20:58:27.336Z,101298.97
2023-09-06T21:00:29.355Z,101297.31
2023-09-06T21:02:31.214Z,101301.84
2023-09-06T21:04:32.887Z,101295.72
2023-09-06T21:06:34.578Z,101297.75
2023-09-06T21:08:36.103Z,101300.44
2023-09-06T21:10:37.695Z,101300.56
2023-09-06T21:12:39.294Z,101304.28
2023-09-06T21:14:40.953Z,101299.88
2023-09-06T21:16:42.507Z,101298.19
2023-09-06T21:18:44.288Z,101303.75
2023-09-06T21:20:46.018Z,101295.75
2023-09-06T21:22:49.829Z,101292.22
2023-09-06T21:24:51.513Z,101299.47
2023-09-06T21:26:53.120Z,101303.19
2023-09-06T21:28:56.904Z,101304.19
2023-09-06T21:30:58.529Z,101307.88
2023-09-06T21:33:00.449Z,101307.03
2023-09-06T21:35:02.420Z,101300.75
2023-09-06T21:37:04.377Z,101306.31
2023-09-06T21:39:08.994Z,101304.63
2023-09-06T21:41:10.721Z,101311.00
2023-09-06T21:43:18.302Z,101305.75
2023-09-06T21:45:20.893Z,101300.38
2023-09-06T21:47:23.394Z,101298.63
2023-09-06T21:49:24.937Z,101301.47
2023-09-06T21:51:26.557Z,101305.88
2023-09-06T21:53:28.028Z,101303.31
2023-09-06T21:55:29.722Z,101300.75
2023-09-06T21:57:31.159Z,101299.06
2023-09-06T21:59:32.866Z,101300.91
2023-09-06T22:01:37.927Z,101301.91
2023-09-06T22:03:39.723Z,101294.81
2023-09-06T22:05:41.189Z,101296.66
2023-09-06T22:07:42.871Z,101303.91
2023-09-06T22:09:47.405Z,101307.59
2023-09-06T22:11:48.954Z,101306.91
2023-09-06T22:13:50.420Z,101308.72
2023-09-06T22:15:52.121Z,101310.75
2023-09-06T22:17:53.740Z,101304.47
2023-09-06T22:19:58.532Z,101310.88
2023-09-06T22:22:00.089Z,101309.16
2023-09-06T22:24:01.621Z,101301.06
2023-09-06T22:26:03.179Z,101301.22
2023-09-06T22:28:09.587Z,101306.78
2023-09-06T22:30:11.687Z,101304.06
2023-09-06T22:32:13.203Z,101304.91
2023-09-06T22:34:14.778Z,101296.97
2023-09-06T22:36:16.316Z,101294.44
2023-09-06T22:38:20.666Z,101289.03
2023-09-06T22:40:22.322Z,101290.88
2023-09-06T22:42:23.832Z,101298.13
2023-09-06T22:44:25.559Z,101297.41
2023-09-06T22:46:28.640Z,101300.97
2023-09-06T22:48:48.054Z,101300.25
2023-09-06T22:50:52.338Z,101297.56
2023-09-06T22:52:54.008Z,101294.13
2023-09-06T22:54:56.054Z,101297.84
2023-09-06T22:56:57.770Z,101298.84
2023-09-06T22:59:00.093Z,101292.59
2023-09-06T23:01:08.411Z,101296.28
2023-09-06T23:03:14.767Z,101296.59
2023-09-06T23:05:16.544Z,101293.00
2023-09-06T23:07:22.251Z,101287.78
2023-09-06T23:09:23.877Z,101290.47
2023-09-06T23:11:25.679Z,101281.66
2023-09-06T23:13:27.203Z,101283.69
2023-09-06T23:15:30.175Z,101279.13
2023-09-06T23:19:44.847Z,101273.00
2023-09-06T23:21:47.412Z,101277.56
2023-09-06T23:23:50.054Z,101271.31
2023-09-06T23:25:53.560Z,101278.56
2023-09-06T23:27:56.128Z,101272.34
2023-09-06T23:30:02.877Z,101273.44
2023-09-06T23:32:07.929Z,101275.31
2023-09-06T23:34:15.674Z,101273.44
2023-09-06T23:36:18.879Z,101269.06
2023-09-06T23:38:21.835Z,101269.91
2023-09-06T23:40:24.982Z,101270.91
2023-09-06T23:42:28.241Z,101273.59
2023-09-06T23:44:29.733Z,101272.75
2023-09-06T23:46:31.529Z,101273.75
2023-09-06T23:48:33.281Z,101276.44
2023-09-06T23:50:34.972Z,101268.50
2023-09-06T23:52:36.444Z,101260.53
2023-09-06T23:54:47.167Z,101265.09